sensor_id;sensor_type;location;lat;lon;timestamp;P1;durP1;ratioP1;P2;durP2;ratioP2
20976;SDS011;10647;51.016;3.720;2022-07-29T00:00:51;5.10;;;2.37;;
20976;SDS011;10647;51.016;3.720;2022-07-29T00:03:18;4.85;;;2.40;;
20976;SDS011;10647;51.016;3.720;2022-07-29T00:05:46;7.37;;;2.22;;
20976;SDS011;10647;51.016;3.720;2022-07-29T00:08:14;6.55;;;2.40;;
20976;SDS011;10647;51.016;3.720;2022-07-29T00:10:41;7.72;;;2.30;;
20976;SDS011;10647;51.016;3.720;2022-07-29T00:13:11;5.08;;;2.30;;
20976;SDS011;10647;51.016;3.720;2022-07-29T00:15:38;5.15;;;2.27;;
20976;SDS011;10647;51.016;3.720;2022-07-29T00:18:06;5.83;;;2.27;;
20976;SDS011;10647;51.016;3.720;2022-07-29T00:20:34;6.60;;;2.42;;
20976;SDS011;10647;51.016;3.720;2022-07-29T00:23:01;4.17;;;2.02;;
20976;SDS011;10647;51.016;3.720;2022-07-29T00:25:29;5.55;;;2.50;;
20976;SDS011;10647;51.016;3.720;2022-07-29T00:27:56;8.35;;;2.60;;
20976;SDS011;10647;51.016;3.720;2022-07-29T00:30:24;5.87;;;2.62;;
20976;SDS011;10647;51.016;3.720;2022-07-29T00:32:51;5.17;;;2.05;;
20976;SDS011;10647;51.016;3.720;2022-07-29T00:35:19;4.60;;;2.25;;
20976;SDS011;10647;51.016;3.720;2022-07-29T00:38:04;6.53;;;2.20;;
20976;SDS011;10647;51.016;3.720;2022-07-29T00:40:32;7.33;;;2.60;;
20976;SDS011;10647;51.016;3.720;2022-07-29T00:43:00;5.70;;;2.92;;
20976;SDS011;10647;51.016;3.720;2022-07-29T00:45:27;7.08;;;2.80;;
20976;SDS011;10647;51.016;3.720;2022-07-29T00:47:55;6.60;;;2.52;;
20976;SDS011;10647;51.016;3.720;2022-07-29T00:50:23;7.75;;;2.60;;
20976;SDS011;10647;51.016;3.720;2022-07-29T00:52:51;8.18;;;2.45;;
20976;SDS011;10647;51.016;3.720;2022-07-29T00:55:19;7.85;;;2.45;;
20976;SDS011;10647;51.016;3.720;2022-07-29T00:57:47;7.85;;;2.30;;
20976;SDS011;10647;51.016;3.720;2022-07-29T01:00:16;6.40;;;2.40;;
20976;SDS011;10647;51.016;3.720;2022-07-29T01:02:46;7.97;;;2.50;;
20976;SDS011;10647;51.016;3.720;2022-07-29T01:05:18;7.37;;;2.33;;
20976;SDS011;10647;51.016;3.720;2022-07-29T01:07:48;6.78;;;2.58;;
20976;SDS011;10647;51.016;3.720;2022-07-29T01:10:18;7.25;;;2.52;;
20976;SDS011;10647;51.016;3.720;2022-07-29T01:12:47;5.60;;;2.60;;
20976;SDS011;10647;51.016;3.720;2022-07-29T01:15:17;5.60;;;2.45;;
20976;SDS011;10647;51.016;3.720;2022-07-29T01:17:47;4.53;;;2.52;;
20976;SDS011;10647;51.016;3.720;2022-07-29T01:23:05;9.38;;;2.83;;
20976;SDS011;10647;51.016;3.720;2022-07-29T01:31:28;4.50;;;2.40;;
20976;SDS011;10647;51.016;3.720;2022-07-29T01:33:57;6.75;;;2.40;;
20976;SDS011;10647;51.016;3.720;2022-07-29T01:36:35;3.97;;;2.13;;
20976;SDS011;10647;51.016;3.720;2022-07-29T01:39:05;5.13;;;2.20;;
20976;SDS011;10647;51.016;3.720;2022-07-29T01:41:35;5.07;;;2.30;;
20976;SDS011;10647;51.016;3.720;2022-07-29T01:44:10;7.63;;;2.40;;
20976;SDS011;10647;51.016;3.720;2022-07-29T01:46:37;4.17;;;2.30;;
20976;SDS011;10647;51.016;3.720;2022-07-29T01:49:11;5.87;;;2.40;;
20976;SDS011;10647;51.016;3.720;2022-07-29T01:51:47;4.13;;;2.10;;
20976;SDS011;10647;51.016;3.720;2022-07-29T01:54:21;5.90;;;2.20;;
20976;SDS011;10647;51.016;3.720;2022-07-29T01:57:13;4.47;;;2.20;;
20976;SDS011;10647;51.016;3.720;2022-07-29T01:59:43;5.70;;;2.30;;
20976;SDS011;10647;51.016;3.720;2022-07-29T02:02:17;6.37;;;2.43;;
20976;SDS011;10647;51.016;3.720;2022-07-29T02:04:49;5.60;;;2.20;;
20976;SDS011;10647;51.016;3.720;2022-07-29T02:07:20;6.33;;;2.10;;
20976;SDS011;10647;51.016;3.720;2022-07-29T02:09:55;5.00;;;2.17;;
20976;SDS011;10647;51.016;3.720;2022-07-29T02:12:24;5.72;;;2.20;;
20976;SDS011;10647;51.016;3.720;2022-07-29T02:15:02;3.10;;;2.07;;
20976;SDS011;10647;51.016;3.720;2022-07-29T02:20:05;5.23;;;2.10;;
20976;SDS011;10647;51.016;3.720;2022-07-29T02:22:47;8.13;;;2.57;;
20976;SDS011;10647;51.016;3.720;2022-07-29T02:25:16;6.23;;;2.40;;
20976;SDS011;10647;51.016;3.720;2022-07-29T02:27:46;4.40;;;2.10;;
20976;SDS011;10647;51.016;3.720;2022-07-29T02:32:48;6.20;;;2.30;;
20976;SDS011;10647;51.016;3.720;2022-07-29T02:35:19;5.17;;;2.20;;
20976;SDS011;10647;51.016;3.720;2022-07-29T02:37:50;4.07;;;2.00;;
20976;SDS011;10647;51.016;3.720;2022-07-29T02:40:38;6.47;;;2.30;;
20976;SDS011;10647;51.016;3.720;2022-07-29T02:43:10;3.73;;;1.93;;
20976;SDS011;10647;51.016;3.720;2022-07-29T02:48:31;5.30;;;2.20;;
20976;SDS011;10647;51.016;3.720;2022-07-29T02:51:05;4.20;;;1.90;;
20976;SDS011;10647;51.016;3.720;2022-07-29T02:53:35;4.70;;;2.17;;
20976;SDS011;10647;51.016;3.720;2022-07-29T02:56:06;4.10;;;2.00;;
20976;SDS011;10647;51.016;3.720;2022-07-29T02:58:39;4.13;;;1.93;;
20976;SDS011;10647;51.016;3.720;2022-07-29T03:01:29;5.70;;;2.50;;
20976;SDS011;10647;51.016;3.720;2022-07-29T03:03:46;4.80;;;2.30;;
20976;SDS011;10647;51.016;3.720;2022-07-29T03:06:16;4.83;;;2.00;;
20976;SDS011;10647;51.016;3.720;2022-07-29T03:08:44;6.67;;;2.50;;
20976;SDS011;10647;51.016;3.720;2022-07-29T03:11:12;8.20;;;2.57;;
20976;SDS011;10647;51.016;3.720;2022-07-29T03:13:41;7.53;;;2.30;;
20976;SDS011;10647;51.016;3.720;2022-07-29T03:16:09;4.30;;;2.20;;
20976;SDS011;10647;51.016;3.720;2022-07-29T03:18:38;6.20;;;2.47;;
20976;SDS011;10647;51.016;3.720;2022-07-29T03:21:06;7.40;;;2.23;;
20976;SDS011;10647;51.016;3.720;2022-07-29T03:23:35;8.10;;;2.40;;
20976;SDS011;10647;51.016;3.720;2022-07-29T03:26:02;5.57;;;2.10;;
20976;SDS011;10647;51.016;3.720;2022-07-29T03:28:30;5.07;;;2.13;;
20976;SDS011;10647;51.016;3.720;2022-07-29T03:30:58;8.70;;;2.20;;
20976;SDS011;10647;51.016;3.720;2022-07-29T03:33:25;9.00;;;2.70;;
20976;SDS011;10647;51.016;3.720;2022-07-29T03:35:54;5.43;;;2.30;;
20976;SDS011;10647;51.016;3.720;2022-07-29T03:38:24;6.63;;;2.70;;
20976;SDS011;10647;51.016;3.720;2022-07-29T03:40:54;6.13;;;2.30;;
20976;SDS011;10647;51.016;3.720;2022-07-29T03:43:23;6.57;;;2.27;;
20976;SDS011;10647;51.016;3.720;2022-07-29T03:45:53;8.87;;;2.60;;
20976;SDS011;10647;51.016;3.720;2022-07-29T03:48:23;5.70;;;2.53;;
20976;SDS011;10647;51.016;3.720;2022-07-29T03:50:53;6.97;;;2.50;;
20976;SDS011;10647;51.016;3.720;2022-07-29T03:53:22;8.00;;;2.47;;
20976;SDS011;10647;51.016;3.720;2022-07-29T03:55:51;11.50;;;2.30;;
20976;SDS011;10647;51.016;3.720;2022-07-29T03:58:20;8.47;;;2.63;;
20976;SDS011;10647;51.016;3.720;2022-07-29T04:00:49;6.13;;;2.57;;
20976;SDS011;10647;51.016;3.720;2022-07-29T04:03:17;8.43;;;2.70;;
20976;SDS011;10647;51.016;3.720;2022-07-29T04:05:45;9.83;;;2.77;;
20976;SDS011;10647;51.016;3.720;2022-07-29T04:08:27;8.67;;;2.53;;
20976;SDS011;10647;51.016;3.720;2022-07-29T04:10:55;7.50;;;2.30;;
20976;SDS011;10647;51.016;3.720;2022-07-29T04:13:23;5.03;;;2.40;;
20976;SDS011;10647;51.016;3.720;2022-07-29T04:15:50;7.50;;;2.50;;
20976;SDS011;10647;51.016;3.720;2022-07-29T04:18:18;9.23;;;2.53;;
20976;SDS011;10647;51.016;3.720;2022-07-29T04:20:45;5.23;;;2.30;;
20976;SDS011;10647;51.016;3.720;2022-07-29T04:23:13;7.57;;;2.63;;
20976;SDS011;10647;51.016;3.720;2022-07-29T04:25:40;8.30;;;2.50;;
20976;SDS011;10647;51.016;3.720;2022-07-29T04:28:09;6.47;;;2.70;;
20976;SDS011;10647;51.016;3.720;2022-07-29T04:33:21;5.50;;;2.77;;
20976;SDS011;10647;51.016;3.720;2022-07-29T04:35:54;8.70;;;2.60;;
20976;SDS011;10647;51.016;3.720;2022-07-29T04:38:21;5.40;;;2.83;;
20976;SDS011;10647;51.016;3.720;2022-07-29T04:41:00;6.93;;;2.70;;
20976;SDS011;10647;51.016;3.720;2022-07-29T04:43:27;4.20;;;2.60;;
20976;SDS011;10647;51.016;3.720;2022-07-29T04:45:58;4.93;;;2.47;;
20976;SDS011;10647;51.016;3.720;2022-07-29T04:48:26;6.50;;;2.77;;
20976;SDS011;10647;51.016;3.720;2022-07-29T04:50:54;7.13;;;3.00;;
20976;SDS011;10647;51.016;3.720;2022-07-29T04:58:53;5.37;;;2.80;;
20976;SDS011;10647;51.016;3.720;2022-07-29T05:01:21;8.23;;;3.57;;
20976;SDS011;10647;51.016;3.720;2022-07-29T05:03:51;7.93;;;3.47;;
20976;SDS011;10647;51.016;3.720;2022-07-29T05:06:22;5.37;;;3.90;;
20976;SDS011;10647;51.016;3.720;2022-07-29T05:09:01;9.70;;;4.70;;
20976;SDS011;10647;51.016;3.720;2022-07-29T05:11:34;9.57;;;4.93;;
20976;SDS011;10647;51.016;3.720;2022-07-29T05:14:03;13.73;;;5.43;;
20976;SDS011;10647;51.016;3.720;2022-07-29T05:16:37;9.27;;;5.70;;
20976;SDS011;10647;51.016;3.720;2022-07-29T05:19:12;12.33;;;5.80;;
20976;SDS011;10647;51.016;3.720;2022-07-29T05:24:26;13.40;;;6.43;;
20976;SDS011;10647;51.016;3.720;2022-07-29T05:26:54;11.10;;;6.03;;
20976;SDS011;10647;51.016;3.720;2022-07-29T05:31:52;9.07;;;5.53;;
20976;SDS011;10647;51.016;3.720;2022-07-29T05:34:26;17.00;;;6.17;;
20976;SDS011;10647;51.016;3.720;2022-07-29T05:36:54;10.33;;;5.13;;
20976;SDS011;10647;51.016;3.720;2022-07-29T05:39:27;12.75;;;5.50;;
20976;SDS011;10647;51.016;3.720;2022-07-29T05:41:58;8.93;;;5.40;;
20976;SDS011;10647;51.016;3.720;2022-07-29T05:44:26;8.90;;;5.40;;
20976;SDS011;10647;51.016;3.720;2022-07-29T05:46:54;8.85;;;5.65;;
20976;SDS011;10647;51.016;3.720;2022-07-29T05:49:21;11.33;;;5.33;;
20976;SDS011;10647;51.016;3.720;2022-07-29T05:51:49;10.65;;;5.78;;
20976;SDS011;10647;51.016;3.720;2022-07-29T05:54:17;11.08;;;5.95;;
20976;SDS011;10647;51.016;3.720;2022-07-29T05:56:45;13.83;;;6.85;;
20976;SDS011;10647;51.016;3.720;2022-07-29T05:59:19;12.03;;;7.22;;
20976;SDS011;10647;51.016;3.720;2022-07-29T06:01:47;12.45;;;7.00;;
20976;SDS011;10647;51.016;3.720;2022-07-29T06:04:29;12.18;;;6.90;;
20976;SDS011;10647;51.016;3.720;2022-07-29T06:06:57;10.63;;;5.62;;
20976;SDS011;10647;51.016;3.720;2022-07-29T06:09:25;12.68;;;6.92;;
20976;SDS011;10647;51.016;3.720;2022-07-29T06:11:52;12.10;;;6.78;;
20976;SDS011;10647;51.016;3.720;2022-07-29T06:14:20;19.07;;;7.28;;
20976;SDS011;10647;51.016;3.720;2022-07-29T06:16:48;13.83;;;7.85;;
20976;SDS011;10647;51.016;3.720;2022-07-29T06:19:16;13.45;;;7.35;;
20976;SDS011;10647;51.016;3.720;2022-07-29T06:21:46;15.72;;;8.65;;
20976;SDS011;10647;51.016;3.720;2022-07-29T06:29:22;18.35;;;9.50;;
20976;SDS011;10647;51.016;3.720;2022-07-29T06:31:50;15.08;;;9.18;;
20976;SDS011;10647;51.016;3.720;2022-07-29T06:34:17;15.70;;;9.08;;
20976;SDS011;10647;51.016;3.720;2022-07-29T06:36:50;14.07;;;9.08;;
20976;SDS011;10647;51.016;3.720;2022-07-29T06:39:18;15.43;;;8.38;;
20976;SDS011;10647;51.016;3.720;2022-07-29T06:41:47;9.80;;;6.75;;
20976;SDS011;10647;51.016;3.720;2022-07-29T06:44:17;13.43;;;6.62;;
20976;SDS011;10647;51.016;3.720;2022-07-29T06:49:32;11.22;;;6.30;;
20976;SDS011;10647;51.016;3.720;2022-07-29T06:51:59;7.25;;;4.72;;
20976;SDS011;10647;51.016;3.720;2022-07-29T06:54:27;16.73;;;5.37;;
20976;SDS011;10647;51.016;3.720;2022-07-29T06:56:56;8.20;;;4.47;;
20976;SDS011;10647;51.016;3.720;2022-07-29T06:59:24;6.65;;;4.28;;
20976;SDS011;10647;51.016;3.720;2022-07-29T07:01:52;13.88;;;4.90;;
20976;SDS011;10647;51.016;3.720;2022-07-29T07:04:19;8.15;;;4.05;;
20976;SDS011;10647;51.016;3.720;2022-07-29T07:06:47;8.80;;;4.35;;
20976;SDS011;10647;51.016;3.720;2022-07-29T07:09:14;12.58;;;5.28;;
20976;SDS011;10647;51.016;3.720;2022-07-29T07:11:42;10.35;;;4.10;;
20976;SDS011;10647;51.016;3.720;2022-07-29T07:14:09;5.28;;;3.42;;
20976;SDS011;10647;51.016;3.720;2022-07-29T07:16:37;7.55;;;3.90;;
20976;SDS011;10647;51.016;3.720;2022-07-29T07:19:04;8.80;;;4.40;;
20976;SDS011;10647;51.016;3.720;2022-07-29T07:21:32;7.97;;;4.70;;
20976;SDS011;10647;51.016;3.720;2022-07-29T07:24:01;8.98;;;4.50;;
20976;SDS011;10647;51.016;3.720;2022-07-29T07:26:28;7.90;;;4.72;;
20976;SDS011;10647;51.016;3.720;2022-07-29T07:28:56;7.55;;;4.33;;
20976;SDS011;10647;51.016;3.720;2022-07-29T07:33:54;8.53;;;5.03;;
20976;SDS011;10647;51.016;3.720;2022-07-29T07:36:22;10.55;;;5.05;;
20976;SDS011;10647;51.016;3.720;2022-07-29T07:38:53;12.13;;;5.12;;
20976;SDS011;10647;51.016;3.720;2022-07-29T07:41:20;10.30;;;5.33;;
20976;SDS011;10647;51.016;3.720;2022-07-29T07:43:48;9.40;;;5.40;;
20976;SDS011;10647;51.016;3.720;2022-07-29T07:46:16;10.53;;;5.70;;
20976;SDS011;10647;51.016;3.720;2022-07-29T07:48:45;10.82;;;5.90;;
20976;SDS011;10647;51.016;3.720;2022-07-29T07:51:13;10.35;;;6.05;;
20976;SDS011;10647;51.016;3.720;2022-07-29T07:53:41;13.15;;;6.80;;
20976;SDS011;10647;51.016;3.720;2022-07-29T07:56:10;13.62;;;7.40;;
20976;SDS011;10647;51.016;3.720;2022-07-29T07:58:39;15.18;;;8.78;;
20976;SDS011;10647;51.016;3.720;2022-07-29T08:01:10;14.23;;;8.55;;
20976;SDS011;10647;51.016;3.720;2022-07-29T08:03:38;16.67;;;10.23;;
20976;SDS011;10647;51.016;3.720;2022-07-29T08:06:09;16.27;;;9.70;;
20976;SDS011;10647;51.016;3.720;2022-07-29T08:08:37;18.57;;;10.85;;
20976;SDS011;10647;51.016;3.720;2022-07-29T08:11:04;22.90;;;12.70;;
20976;SDS011;10647;51.016;3.720;2022-07-29T08:13:32;26.37;;;12.88;;
20976;SDS011;10647;51.016;3.720;2022-07-29T08:18:32;22.45;;;13.85;;
20976;SDS011;10647;51.016;3.720;2022-07-29T08:20:59;24.98;;;14.87;;
20976;SDS011;10647;51.016;3.720;2022-07-29T08:23:27;30.25;;;17.65;;
20976;SDS011;10647;51.016;3.720;2022-07-29T08:25:56;24.35;;;14.53;;
20976;SDS011;10647;51.016;3.720;2022-07-29T08:28:24;27.85;;;15.63;;
20976;SDS011;10647;51.016;3.720;2022-07-29T08:30:51;23.12;;;14.65;;
20976;SDS011;10647;51.016;3.720;2022-07-29T08:33:19;21.27;;;13.08;;
20976;SDS011;10647;51.016;3.720;2022-07-29T08:35:46;18.82;;;10.03;;
20976;SDS011;10647;51.016;3.720;2022-07-29T08:38:16;13.00;;;6.40;;
20976;SDS011;10647;51.016;3.720;2022-07-29T08:40:44;11.40;;;6.47;;
20976;SDS011;10647;51.016;3.720;2022-07-29T08:43:12;16.70;;;5.70;;
20976;SDS011;10647;51.016;3.720;2022-07-29T08:45:45;9.80;;;5.35;;
20976;SDS011;10647;51.016;3.720;2022-07-29T08:48:12;7.85;;;4.30;;
20976;SDS011;10647;51.016;3.720;2022-07-29T08:50:41;8.98;;;3.85;;
20976;SDS011;10647;51.016;3.720;2022-07-29T08:53:10;7.75;;;3.33;;
20976;SDS011;10647;51.016;3.720;2022-07-29T08:55:43;6.80;;;3.50;;
20976;SDS011;10647;51.016;3.720;2022-07-29T08:58:13;6.37;;;3.60;;
20976;SDS011;10647;51.016;3.720;2022-07-29T09:00:41;10.18;;;3.83;;
20976;SDS011;10647;51.016;3.720;2022-07-29T09:03:14;6.67;;;3.83;;
20976;SDS011;10647;51.016;3.720;2022-07-29T09:05:49;8.18;;;3.90;;
20976;SDS011;10647;51.016;3.720;2022-07-29T09:08:14;8.35;;;3.92;;
20976;SDS011;10647;51.016;3.720;2022-07-29T09:10:43;8.93;;;3.85;;
20976;SDS011;10647;51.016;3.720;2022-07-29T09:13:11;9.88;;;3.87;;
20976;SDS011;10647;51.016;3.720;2022-07-29T09:15:39;9.33;;;3.70;;
20976;SDS011;10647;51.016;3.720;2022-07-29T09:18:06;7.17;;;3.70;;
20976;SDS011;10647;51.016;3.720;2022-07-29T09:20:34;10.20;;;3.25;;
20976;SDS011;10647;51.016;3.720;2022-07-29T09:23:19;4.87;;;3.05;;
20976;SDS011;10647;51.016;3.720;2022-07-29T09:25:47;7.22;;;3.35;;
20976;SDS011;10647;51.016;3.720;2022-07-29T09:28:15;7.35;;;3.20;;
20976;SDS011;10647;51.016;3.720;2022-07-29T09:30:54;7.40;;;3.10;;
20976;SDS011;10647;51.016;3.720;2022-07-29T09:33:30;9.00;;;3.62;;
20976;SDS011;10647;51.016;3.720;2022-07-29T09:36:05;7.70;;;3.12;;
20976;SDS011;10647;51.016;3.720;2022-07-29T09:38:35;5.72;;;2.60;;
20976;SDS011;10647;51.016;3.720;2022-07-29T09:41:03;4.05;;;2.80;;
20976;SDS011;10647;51.016;3.720;2022-07-29T09:43:33;7.20;;;2.98;;
20976;SDS011;10647;51.016;3.720;2022-07-29T09:46:15;5.67;;;2.30;;
20976;SDS011;10647;51.016;3.720;2022-07-29T09:48:39;8.38;;;2.90;;
20976;SDS011;10647;51.016;3.720;2022-07-29T09:51:17;6.95;;;2.98;;
20976;SDS011;10647;51.016;3.720;2022-07-29T09:53:45;7.15;;;2.70;;
20976;SDS011;10647;51.016;3.720;2022-07-29T09:56:13;8.05;;;3.72;;
20976;SDS011;10647;51.016;3.720;2022-07-29T09:58:40;9.23;;;2.83;;
20976;SDS011;10647;51.016;3.720;2022-07-29T10:01:08;8.03;;;2.50;;
20976;SDS011;10647;51.016;3.720;2022-07-29T10:03:51;6.03;;;2.10;;
20976;SDS011;10647;51.016;3.720;2022-07-29T10:06:19;7.37;;;2.20;;
20976;SDS011;10647;51.016;3.720;2022-07-29T10:08:47;5.05;;;2.30;;
20976;SDS011;10647;51.016;3.720;2022-07-29T10:11:16;5.03;;;2.20;;
20976;SDS011;10647;51.016;3.720;2022-07-29T10:13:45;4.50;;;2.37;;
20976;SDS011;10647;51.016;3.720;2022-07-29T10:16:15;8.85;;;2.95;;
20976;SDS011;10647;51.016;3.720;2022-07-29T10:18:43;6.87;;;2.52;;
20976;SDS011;10647;51.016;3.720;2022-07-29T10:21:12;5.37;;;2.60;;
20976;SDS011;10647;51.016;3.720;2022-07-29T10:23:40;6.78;;;2.95;;
20976;SDS011;10647;51.016;3.720;2022-07-29T10:26:09;7.72;;;3.20;;
20976;SDS011;10647;51.016;3.720;2022-07-29T10:28:37;6.17;;;2.80;;
20976;SDS011;10647;51.016;3.720;2022-07-29T10:31:05;8.75;;;3.35;;
20976;SDS011;10647;51.016;3.720;2022-07-29T10:33:45;6.75;;;3.02;;
20976;SDS011;10647;51.016;3.720;2022-07-29T10:36:32;5.78;;;3.00;;
20976;SDS011;10647;51.016;3.720;2022-07-29T10:41:43;6.47;;;3.25;;
20976;SDS011;10647;51.016;3.720;2022-07-29T10:44:21;10.82;;;2.92;;
20976;SDS011;10647;51.016;3.720;2022-07-29T10:46:48;5.72;;;2.80;;
20976;SDS011;10647;51.016;3.720;2022-07-29T10:49:17;8.58;;;2.70;;
20976;SDS011;10647;51.016;3.720;2022-07-29T11:00:36;4.37;;;2.55;;
20976;SDS011;10647;51.016;3.720;2022-07-29T11:05:08;4.20;;;2.17;;
20976;SDS011;10647;51.016;3.720;2022-07-29T11:07:40;4.85;;;1.60;;
20976;SDS011;10647;51.016;3.720;2022-07-29T11:10:26;4.28;;;1.57;;
20976;SDS011;10647;51.016;3.720;2022-07-29T11:12:54;5.60;;;1.75;;
20976;SDS011;10647;51.016;3.720;2022-07-29T11:15:21;3.85;;;1.65;;
20976;SDS011;10647;51.016;3.720;2022-07-29T11:26:14;7.72;;;1.80;;
20976;SDS011;10647;51.016;3.720;2022-07-29T11:28:55;5.20;;;1.60;;
20976;SDS011;10647;51.016;3.720;2022-07-29T11:31:40;4.72;;;1.70;;
20976;SDS011;10647;51.016;3.720;2022-07-29T11:39:45;6.90;;;1.67;;
20976;SDS011;10647;51.016;3.720;2022-07-29T11:44:56;3.72;;;1.72;;
20976;SDS011;10647;51.016;3.720;2022-07-29T11:47:26;4.08;;;1.80;;
20976;SDS011;10647;51.016;3.720;2022-07-29T11:49:56;5.03;;;1.90;;
20976;SDS011;10647;51.016;3.720;2022-07-29T11:52:34;5.78;;;1.87;;
20976;SDS011;10647;51.016;3.720;2022-07-29T11:55:06;4.03;;;1.75;;
20976;SDS011;10647;51.016;3.720;2022-07-29T11:57:34;6.20;;;2.08;;
20976;SDS011;10647;51.016;3.720;2022-07-29T12:00:06;3.08;;;1.57;;
20976;SDS011;10647;51.016;3.720;2022-07-29T12:02:41;8.30;;;1.82;;
20976;SDS011;10647;51.016;3.720;2022-07-29T12:05:10;4.55;;;1.80;;
20976;SDS011;10647;51.016;3.720;2022-07-29T12:07:38;5.15;;;1.87;;
20976;SDS011;10647;51.016;3.720;2022-07-29T12:10:07;3.83;;;2.30;;
20976;SDS011;10647;51.016;3.720;2022-07-29T12:12:34;5.55;;;2.10;;
20976;SDS011;10647;51.016;3.720;2022-07-29T12:15:26;7.15;;;1.98;;
20976;SDS011;10647;51.016;3.720;2022-07-29T12:17:40;6.95;;;1.77;;
20976;SDS011;10647;51.016;3.720;2022-07-29T12:20:08;4.62;;;1.60;;
20976;SDS011;10647;51.016;3.720;2022-07-29T12:22:37;5.70;;;1.75;;
20976;SDS011;10647;51.016;3.720;2022-07-29T12:25:08;4.95;;;1.87;;
20976;SDS011;10647;51.016;3.720;2022-07-29T12:27:37;2.98;;;1.67;;
20976;SDS011;10647;51.016;3.720;2022-07-29T12:30:09;3.87;;;1.57;;
20976;SDS011;10647;51.016;3.720;2022-07-29T12:32:40;6.33;;;1.85;;
20976;SDS011;10647;51.016;3.720;2022-07-29T12:35:15;3.47;;;1.37;;
20976;SDS011;10647;51.016;3.720;2022-07-29T12:37:48;3.83;;;1.82;;
20976;SDS011;10647;51.016;3.720;2022-07-29T12:40:18;7.28;;;1.50;;
20976;SDS011;10647;51.016;3.720;2022-07-29T12:45:35;7.83;;;1.90;;
20976;SDS011;10647;51.016;3.720;2022-07-29T12:48:04;4.80;;;2.00;;
20976;SDS011;10647;51.016;3.720;2022-07-29T12:50:36;4.67;;;1.75;;
20976;SDS011;10647;51.016;3.720;2022-07-29T12:53:21;5.75;;;1.82;;
20976;SDS011;10647;51.016;3.720;2022-07-29T12:55:50;7.25;;;1.82;;
20976;SDS011;10647;51.016;3.720;2022-07-29T12:58:36;8.00;;;1.92;;
20976;SDS011;10647;51.016;3.720;2022-07-29T13:01:09;8.55;;;2.00;;
20976;SDS011;10647;51.016;3.720;2022-07-29T13:03:57;3.70;;;1.60;;
20976;SDS011;10647;51.016;3.720;2022-07-29T13:09:21;6.80;;;1.70;;
20976;SDS011;10647;51.016;3.720;2022-07-29T13:11:48;4.05;;;1.52;;
20976;SDS011;10647;51.016;3.720;2022-07-29T13:14:34;3.75;;;1.62;;
20976;SDS011;10647;51.016;3.720;2022-07-29T13:17:04;4.47;;;1.32;;
20976;SDS011;10647;51.016;3.720;2022-07-29T13:19:33;2.75;;;1.42;;
20976;SDS011;10647;51.016;3.720;2022-07-29T13:22:13;3.40;;;1.30;;
20976;SDS011;10647;51.016;3.720;2022-07-29T13:24:51;3.70;;;1.47;;
20976;SDS011;10647;51.016;3.720;2022-07-29T13:27:21;6.65;;;1.40;;
20976;SDS011;10647;51.016;3.720;2022-07-29T13:29:51;7.42;;;1.70;;
20976;SDS011;10647;51.016;3.720;2022-07-29T13:32:19;5.97;;;1.90;;
20976;SDS011;10647;51.016;3.720;2022-07-29T13:34:47;4.90;;;1.52;;
20976;SDS011;10647;51.016;3.720;2022-07-29T13:37:15;3.33;;;1.30;;
20976;SDS011;10647;51.016;3.720;2022-07-29T13:39:45;3.60;;;1.20;;
20976;SDS011;10647;51.016;3.720;2022-07-29T13:42:13;2.55;;;1.40;;
20976;SDS011;10647;51.016;3.720;2022-07-29T13:44:41;2.42;;;1.52;;
20976;SDS011;10647;51.016;3.720;2022-07-29T13:47:08;4.28;;;1.40;;
20976;SDS011;10647;51.016;3.720;2022-07-29T13:49:36;7.58;;;1.57;;
20976;SDS011;10647;51.016;3.720;2022-07-29T13:52:04;6.78;;;1.30;;
20976;SDS011;10647;51.016;3.720;2022-07-29T13:54:33;5.80;;;1.80;;
20976;SDS011;10647;51.016;3.720;2022-07-29T13:57:02;5.10;;;1.30;;
20976;SDS011;10647;51.016;3.720;2022-07-29T13:59:30;3.55;;;1.72;;
20976;SDS011;10647;51.016;3.720;2022-07-29T14:01:58;4.08;;;1.57;;
20976;SDS011;10647;51.016;3.720;2022-07-29T14:04:26;5.33;;;1.27;;
20976;SDS011;10647;51.016;3.720;2022-07-29T14:06:53;5.25;;;1.50;;
20976;SDS011;10647;51.016;3.720;2022-07-29T14:09:21;4.42;;;1.60;;
20976;SDS011;10647;51.016;3.720;2022-07-29T14:11:48;5.50;;;1.47;;
20976;SDS011;10647;51.016;3.720;2022-07-29T14:14:18;6.47;;;1.37;;
20976;SDS011;10647;51.016;3.720;2022-07-29T14:16:46;3.33;;;1.20;;
20976;SDS011;10647;51.016;3.720;2022-07-29T14:19:14;4.25;;;1.47;;
20976;SDS011;10647;51.016;3.720;2022-07-29T14:21:41;4.08;;;1.40;;
20976;SDS011;10647;51.016;3.720;2022-07-29T14:24:09;6.03;;;1.37;;
20976;SDS011;10647;51.016;3.720;2022-07-29T14:26:37;6.00;;;1.32;;
20976;SDS011;10647;51.016;3.720;2022-07-29T14:29:05;2.98;;;1.40;;
20976;SDS011;10647;51.016;3.720;2022-07-29T14:31:32;4.62;;;1.50;;
20976;SDS011;10647;51.016;3.720;2022-07-29T14:34:00;5.15;;;1.40;;
20976;SDS011;10647;51.016;3.720;2022-07-29T14:36:28;4.05;;;2.00;;
20976;SDS011;10647;51.016;3.720;2022-07-29T14:38:55;4.75;;;1.40;;
20976;SDS011;10647;51.016;3.720;2022-07-29T14:41:23;4.17;;;1.20;;
20976;SDS011;10647;51.016;3.720;2022-07-29T14:43:51;3.92;;;1.17;;
20976;SDS011;10647;51.016;3.720;2022-07-29T14:46:19;3.58;;;1.32;;
20976;SDS011;10647;51.016;3.720;2022-07-29T14:48:47;6.60;;;1.40;;
20976;SDS011;10647;51.016;3.720;2022-07-29T14:51:15;4.35;;;1.40;;
20976;SDS011;10647;51.016;3.720;2022-07-29T14:53:43;4.87;;;1.30;;
20976;SDS011;10647;51.016;3.720;2022-07-29T14:56:10;5.53;;;1.92;;
20976;SDS011;10647;51.016;3.720;2022-07-29T14:58:38;3.05;;;1.40;;
20976;SDS011;10647;51.016;3.720;2022-07-29T15:01:06;7.28;;;1.57;;
20976;SDS011;10647;51.016;3.720;2022-07-29T15:03:33;4.15;;;1.15;;
20976;SDS011;10647;51.016;3.720;2022-07-29T15:06:01;5.70;;;1.40;;
20976;SDS011;10647;51.016;3.720;2022-07-29T15:08:28;5.15;;;1.30;;
20976;SDS011;10647;51.016;3.720;2022-07-29T15:10:57;5.58;;;1.32;;
20976;SDS011;10647;51.016;3.720;2022-07-29T15:13:25;6.78;;;1.50;;
20976;SDS011;10647;51.016;3.720;2022-07-29T15:15:52;2.98;;;1.30;;
20976;SDS011;10647;51.016;3.720;2022-07-29T15:18:20;5.33;;;1.60;;
20976;SDS011;10647;51.016;3.720;2022-07-29T15:20:47;4.87;;;1.30;;
20976;SDS011;10647;51.016;3.720;2022-07-29T15:23:15;4.05;;;1.32;;
20976;SDS011;10647;51.016;3.720;2022-07-29T15:25:43;4.78;;;1.27;;
20976;SDS011;10647;51.016;3.720;2022-07-29T15:28:10;6.15;;;1.40;;
20976;SDS011;10647;51.016;3.720;2022-07-29T15:30:38;3.37;;;1.30;;
20976;SDS011;10647;51.016;3.720;2022-07-29T15:33:08;6.87;;;1.40;;
20976;SDS011;10647;51.016;3.720;2022-07-29T15:35:36;7.30;;;1.70;;
20976;SDS011;10647;51.016;3.720;2022-07-29T15:38:04;2.83;;;1.10;;
20976;SDS011;10647;51.016;3.720;2022-07-29T15:40:32;6.20;;;1.80;;
20976;SDS011;10647;51.016;3.720;2022-07-29T15:43:02;4.08;;;1.67;;
20976;SDS011;10647;51.016;3.720;2022-07-29T15:45:35;3.15;;;1.52;;
20976;SDS011;10647;51.016;3.720;2022-07-29T15:48:05;4.40;;;1.65;;
20976;SDS011;10647;51.016;3.720;2022-07-29T15:50:34;4.97;;;1.70;;
20976;SDS011;10647;51.016;3.720;2022-07-29T15:53:01;5.03;;;1.60;;
20976;SDS011;10647;51.016;3.720;2022-07-29T15:57:59;4.85;;;1.70;;
20976;SDS011;10647;51.016;3.720;2022-07-29T16:00:28;3.92;;;1.40;;
20976;SDS011;10647;51.016;3.720;2022-07-29T16:02:55;4.17;;;1.22;;
20976;SDS011;10647;51.016;3.720;2022-07-29T16:05:23;3.95;;;1.40;;
20976;SDS011;10647;51.016;3.720;2022-07-29T16:07:50;4.87;;;1.52;;
20976;SDS011;10647;51.016;3.720;2022-07-29T16:10:18;5.28;;;1.50;;
20976;SDS011;10647;51.016;3.720;2022-07-29T16:12:46;3.85;;;1.82;;
20976;SDS011;10647;51.016;3.720;2022-07-29T16:15:17;6.70;;;2.20;;
20976;SDS011;10647;51.016;3.720;2022-07-29T16:17:44;7.30;;;2.55;;
20976;SDS011;10647;51.016;3.720;2022-07-29T16:20:12;6.65;;;1.70;;
20976;SDS011;10647;51.016;3.720;2022-07-29T16:22:40;4.62;;;1.77;;